sensor_id;sensor_type;location;lat;lon;timestamp;pressure;altitude;pressure_sealevel;temperature;humidity
78121;BME280;67585;44.802;10.332;2023-04-30T00:01:53;100881.88;;;17.34;71.15
78121;BME280;67585;44.802;10.332;2023-04-30T00:04:18;100872.03;;;17.51;69.75
78121;BME280;67585;44.802;10.332;2023-04-30T00:06:44;100859.00;;;17.35;70.35
78121;BME280;67585;44.802;10.332;2023-04-30T00:09:09;100873.34;;;17.54;70.04
78121;BME280;67585;44.802;10.332;2023-04-30T00:11:35;100869.28;;;17.38;70.91
78121;BME280;67585;44.802;10.332;2023-04-30T00:14:00;100863.72;;;17.29;70.87
78121;BME280;67585;44.802;10.332;2023-04-30T00:16:25;100868.22;;;17.20;71.14
78121;BME280;67585;44.802;10.332;2023-04-30T00:18:51;100838.38;;;16.96;71.52
78121;BME280;67585;44.802;10.332;2023-04-30T00:21:16;100867.63;;;17.23;71.20
78121;BME280;67585;44.802;10.332;2023-04-30T00:23:42;100871.81;;;17.34;70.77
78121;BME280;67585;44.802;10.332;2023-04-30T00:26:07;100860.81;;;17.06;71.67
78121;BME280;67585;44.802;10.332;2023-04-30T00:28:32;100850.16;;;16.91;72.08
78121;BME280;67585;44.802;10.332;2023-04-30T00:30:58;100863.69;;;16.96;72.73
78121;BME280;67585;44.802;10.332;2023-04-30T00:33:23;100853.53;;;17.02;72.20
78121;BME280;67585;44.802;10.332;2023-04-30T00:35:49;100840.59;;;16.94;72.43
78121;BME280;67585;44.802;10.332;2023-04-30T00:38:14;100863.16;;;17.13;72.23
78121;BME280;67585;44.802;10.332;2023-04-30T00:40:40;100847.41;;;17.10;71.93
78121;BME280;67585;44.802;10.332;2023-04-30T00:43:06;100853.84;;;17.00;72.03
78121;BME280;67585;44.802;10.332;2023-04-30T00:45:32;100844.72;;;16.91;71.83
78121;BME280;67585;44.802;10.332;2023-04-30T00:47:57;100837.84;;;16.75;72.91
78121;BME280;67585;44.802;10.332;2023-04-30T00:50:23;100845.53;;;16.73;72.51
78121;BME280;67585;44.802;10.332;2023-04-30T00:52:49;100833.91;;;16.86;72.44
78121;BME280;67585;44.802;10.332;2023-04-30T00:55:15;100834.72;;;16.67;73.49
78121;BME280;67585;44.802;10.332;2023-04-30T00:57:41;100846.31;;;16.73;73.22
78121;BME280;67585;44.802;10.332;2023-04-30T01:00:07;100838.03;;;16.83;72.73
78121;BME280;67585;44.802;10.332;2023-04-30T01:02:36;100850.88;;;16.59;73.91
78121;BME280;67585;44.802;10.332;2023-04-30T01:05:02;100842.19;;;16.57;74.14
78121;BME280;67585;44.802;10.332;2023-04-30T01:07:29;100828.09;;;16.55;73.81
78121;BME280;67585;44.802;10.332;2023-04-30T01:09:55;100848.72;;;16.80;73.47
78121;BME280;67585;44.802;10.332;2023-04-30T01:17:58;100835.06;;;16.42;74.38
78121;BME280;67585;44.802;10.332;2023-04-30T01:20:28;100846.00;;;16.37;74.78
78121;BME280;67585;44.802;10.332;2023-04-30T01:28:07;100856.28;;;16.40;74.93
78121;BME280;67585;44.802;10.332;2023-04-30T01:30:34;100860.53;;;16.27;75.20
78121;BME280;67585;44.802;10.332;2023-04-30T01:33:00;100862.81;;;16.20;75.27
78121;BME280;67585;44.802;10.332;2023-04-30T01:38:45;100863.53;;;16.26;75.33
78121;BME280;67585;44.802;10.332;2023-04-30T01:46:26;100857.34;;;16.44;74.58
78121;BME280;67585;44.802;10.332;2023-04-30T01:49:36;100872.97;;;16.33;75.03
78121;BME280;67585;44.802;10.332;2023-04-30T01:55:07;100859.81;;;16.21;75.44
78121;BME280;67585;44.802;10.332;2023-04-30T01:57:58;100840.44;;;16.04;75.14
78121;BME280;67585;44.802;10.332;2023-04-30T02:00:25;100841.47;;;16.08;75.24
78121;BME280;67585;44.802;10.332;2023-04-30T02:02:51;100863.53;;;16.26;75.37
78121;BME280;67585;44.802;10.332;2023-04-30T02:05:16;100854.97;;;16.37;75.00
78121;BME280;67585;44.802;10.332;2023-04-30T02:07:44;100853.13;;;16.33;75.12
78121;BME280;67585;44.802;10.332;2023-04-30T02:10:11;100856.28;;;16.40;74.43
78121;BME280;67585;44.802;10.332;2023-04-30T02:12:37;100846.53;;;16.39;74.42
78121;BME280;67585;44.802;10.332;2023-04-30T02:15:03;100870.88;;;16.68;73.50
78121;BME280;67585;44.802;10.332;2023-04-30T02:17:29;100868.00;;;16.59;73.50
78121;BME280;67585;44.802;10.332;2023-04-30T02:19:56;100864.91;;;16.47;73.76
78121;BME280;67585;44.802;10.332;2023-04-30T02:22:21;100876.84;;;16.27;74.47
78121;BME280;67585;44.802;10.332;2023-04-30T02:24:46;100869.03;;;16.20;75.12
78121;BME280;67585;44.802;10.332;2023-04-30T02:27:12;100871.94;;;16.05;75.77
78121;BME280;67585;44.802;10.332;2023-04-30T02:29:37;100873.91;;;15.99;75.93
78121;BME280;67585;44.802;10.332;2023-04-30T02:32:03;100873.41;;;15.97;76.14
78121;BME280;67585;44.802;10.332;2023-04-30T02:34:28;100857.31;;;16.01;75.07
78121;BME280;67585;44.802;10.332;2023-04-30T02:36:54;100886.34;;;16.06;75.68
78121;BME280;67585;44.802;10.332;2023-04-30T02:39:19;100881.03;;;16.19;75.23
78121;BME280;67585;44.802;10.332;2023-04-30T02:41:44;100884.88;;;16.37;74.77
78121;BME280;67585;44.802;10.332;2023-04-30T02:44:10;100872.00;;;16.00;75.18
78121;BME280;67585;44.802;10.332;2023-04-30T02:46:36;100858.88;;;15.83;75.54
78121;BME280;67585;44.802;10.332;2023-04-30T02:49:01;100888.88;;;15.97;75.97
78121;BME280;67585;44.802;10.332;2023-04-30T02:51:27;100883.81;;;15.90;75.76
78121;BME280;67585;44.802;10.332;2023-04-30T02:53:56;100879.25;;;15.51;76.91
78121;BME280;67585;44.802;10.332;2023-04-30T02:56:22;100863.94;;;15.31;77.34
78121;BME280;67585;44.802;10.332;2023-04-30T02:58:47;100868.16;;;15.48;76.40
78121;BME280;67585;44.802;10.332;2023-04-30T03:01:12;100888.69;;;15.59;76.48
78121;BME280;67585;44.802;10.332;2023-04-30T03:03:38;100865.97;;;15.50;76.69
78121;BME280;67585;44.802;10.332;2023-04-30T03:06:03;100876.97;;;15.34;77.09
78121;BME280;67585;44.802;10.332;2023-04-30T03:08:29;100843.09;;;15.27;77.25
78121;BME280;67585;44.802;10.332;2023-04-30T03:10:55;100878.91;;;15.58;76.40
78121;BME280;67585;44.802;10.332;2023-04-30T03:13:20;100865.91;;;15.26;77.64
78121;BME280;67585;44.802;10.332;2023-04-30T03:15:45;100849.13;;;15.18;77.47
78121;BME280;67585;44.802;10.332;2023-04-30T03:18:11;100871.41;;;15.15;77.62
78121;BME280;67585;44.802;10.332;2023-04-30T03:20:36;100873.75;;;15.27;77.50
78121;BME280;67585;44.802;10.332;2023-04-30T03:23:02;100864.78;;;15.32;76.68
78121;BME280;67585;44.802;10.332;2023-04-30T03:25:27;100827.47;;;14.79;77.52
78121;BME280;67585;44.802;10.332;2023-04-30T03:27:52;100861.38;;;15.16;76.68
78121;BME280;67585;44.802;10.332;2023-04-30T03:30:18;100849.19;;;14.74;78.10
78121;BME280;67585;44.802;10.332;2023-04-30T03:32:43;100868.44;;;14.72;78.55
78121;BME280;67585;44.802;10.332;2023-04-30T03:35:09;100872.44;;;14.85;78.16
78121;BME280;67585;44.802;10.332;2023-04-30T03:37:35;100865.63;;;14.93;77.30
78121;BME280;67585;44.802;10.332;2023-04-30T03:40:00;100859.16;;;14.84;77.20
78121;BME280;67585;44.802;10.332;2023-04-30T03:42:26;100864.66;;;14.73;77.57
78121;BME280;67585;44.802;10.332;2023-04-30T03:44:51;100866.50;;;14.83;77.78
78121;BME280;67585;44.802;10.332;2023-04-30T03:47:16;100851.00;;;14.89;76.61
78121;BME280;67585;44.802;10.332;2023-04-30T03:49:42;100869.47;;;14.82;77.07
78121;BME280;67585;44.802;10.332;2023-04-30T03:52:07;100864.94;;;14.72;77.41
78121;BME280;67585;44.802;10.332;2023-04-30T03:54:32;100879.13;;;14.98;77.28
78121;BME280;67585;44.802;10.332;2023-04-30T03:56:59;100882.13;;;14.96;76.57
78121;BME280;67585;44.802;10.332;2023-04-30T03:59:24;100860.00;;;14.79;77.32
78121;BME280;67585;44.802;10.332;2023-04-30T04:01:50;100850.81;;;14.75;77.09
78121;BME280;67585;44.802;10.332;2023-04-30T04:04:16;100869.22;;;14.83;77.03
78121;BME280;67585;44.802;10.332;2023-04-30T04:06:41;100864.34;;;14.75;76.58
78121;BME280;67585;44.802;10.332;2023-04-30T04:09:07;100873.94;;;15.02;76.54
78121;BME280;67585;44.802;10.332;2023-04-30T04:11:32;100870.78;;;14.89;76.23
78121;BME280;67585;44.802;10.332;2023-04-30T04:13:59;100884.81;;;15.02;75.87
78121;BME280;67585;44.802;10.332;2023-04-30T04:16:24;100900.84;;;14.98;76.58
78121;BME280;67585;44.802;10.332;2023-04-30T04:18:50;100829.78;;;14.57;76.56
78121;BME280;67585;44.802;10.332;2023-04-30T04:21:15;100882.09;;;15.02;75.87
78121;BME280;67585;44.802;10.332;2023-04-30T04:23:41;100886.00;;;15.25;75.07
78121;BME280;67585;44.802;10.332;2023-04-30T04:26:06;100896.94;;;15.09;75.95
78121;BME280;67585;44.802;10.332;2023-04-30T04:28:31;100894.56;;;15.03;75.32
78121;BME280;67585;44.802;10.332;2023-04-30T04:30:57;100917.63;;;15.05;76.24
78121;BME280;67585;44.802;10.332;2023-04-30T04:33:22;100917.97;;;14.93;76.17
78121;BME280;67585;44.802;10.332;2023-04-30T04:35:48;100892.06;;;14.67;76.55
78121;BME280;67585;44.802;10.332;2023-04-30T04:38:14;100928.94;;;14.68;77.43
78121;BME280;67585;44.802;10.332;2023-04-30T04:40:39;100928.31;;;14.86;76.15
78121;BME280;67585;44.802;10.332;2023-04-30T04:43:05;100916.28;;;15.03;75.56
78121;BME280;67585;44.802;10.332;2023-04-30T04:45:31;100935.69;;;15.20;75.05
78121;BME280;67585;44.802;10.332;2023-04-30T04:47:57;100928.97;;;14.63;78.01
78121;BME280;67585;44.802;10.332;2023-04-30T04:50:23;100825.09;;;14.07;77.36
78121;BME280;67585;44.802;10.332;2023-04-30T04:52:48;100931.94;;;14.66;77.05
78121;BME280;67585;44.802;10.332;2023-04-30T04:55:14;100950.78;;;14.92;77.13
78121;BME280;67585;44.802;10.332;2023-04-30T04:57:39;100944.50;;;15.02;76.40
78121;BME280;67585;44.802;10.332;2023-04-30T05:00:06;100910.69;;;14.84;76.33
78121;BME280;67585;44.802;10.332;2023-04-30T05:02:32;100925.72;;;14.61;76.93
78121;BME280;67585;44.802;10.332;2023-04-30T05:04:57;100949.00;;;15.16;75.86
78121;BME280;67585;44.802;10.332;2023-04-30T05:07:23;100958.28;;;15.10;75.83
78121;BME280;67585;44.802;10.332;2023-04-30T05:09:48;100935.47;;;15.11;75.59
78121;BME280;67585;44.802;10.332;2023-04-30T05:12:14;100954.94;;;15.24;75.39
78121;BME280;67585;44.802;10.332;2023-04-30T05:14:39;100940.50;;;15.28;74.88
78121;BME280;67585;44.802;10.332;2023-04-30T05:17:05;100942.88;;;15.01;76.17
78121;BME280;67585;44.802;10.332;2023-04-30T05:19:31;100933.94;;;14.95;76.37
78121;BME280;67585;44.802;10.332;2023-04-30T05:21:56;100946.50;;;14.86;77.00
78121;BME280;67585;44.802;10.332;2023-04-30T05:24:22;100941.72;;;14.62;77.19
78121;BME280;67585;44.802;10.332;2023-04-30T05:26:48;100964.44;;;14.77;77.33
78121;BME280;67585;44.802;10.332;2023-04-30T05:29:13;100957.81;;;14.98;76.79
78121;BME280;67585;44.802;10.332;2023-04-30T05:31:38;100944.00;;;14.89;76.89
78121;BME280;67585;44.802;10.332;2023-04-30T05:34:04;100939.44;;;14.85;77.29
78121;BME280;67585;44.802;10.332;2023-04-30T05:36:29;100948.19;;;14.71;77.62
78121;BME280;67585;44.802;10.332;2023-04-30T05:38:56;100958.91;;;14.92;77.08
78121;BME280;67585;44.802;10.332;2023-04-30T05:41:22;100970.19;;;15.14;76.71
78121;BME280;67585;44.802;10.332;2023-04-30T05:43:47;100967.72;;;14.73;78.20
78121;BME280;67585;44.802;10.332;2023-04-30T05:46:12;100932.75;;;14.67;78.65
78121;BME280;67585;44.802;10.332;2023-04-30T05:48:38;100915.69;;;14.56;78.10
78121;BME280;67585;44.802;10.332;2023-04-30T05:51:04;100962.59;;;15.11;76.61
78121;BME280;67585;44.802;10.332;2023-04-30T05:53:32;100962.09;;;15.04;77.06
78121;BME280;67585;44.802;10.332;2023-04-30T05:55:57;100959.13;;;15.06;76.68
78121;BME280;67585;44.802;10.332;2023-04-30T05:58:24;100960.31;;;14.84;78.26
78121;BME280;67585;44.802;10.332;2023-04-30T06:00:49;100932.66;;;14.82;77.50
78121;BME280;67585;44.802;10.332;2023-04-30T06:03:17;100937.59;;;14.70;77.75
78121;BME280;67585;44.802;10.332;2023-04-30T06:05:42;100956.53;;;14.80;78.20
78121;BME280;67585;44.802;10.332;2023-04-30T06:08:08;100953.53;;;14.87;77.86
78121;BME280;67585;44.802;10.332;2023-04-30T06:10:34;100946.00;;;14.73;78.73
78121;BME280;67585;44.802;10.332;2023-04-30T06:12:59;100925.50;;;15.02;77.07
78121;BME280;67585;44.802;10.332;2023-04-30T06:15:25;100967.97;;;15.27;76.50
78121;BME280;67585;44.802;10.332;2023-04-30T06:17:50;100955.56;;;15.50;75.52
78121;BME280;67585;44.802;10.332;2023-04-30T06:20:16;100951.47;;;15.52;74.93
78121;BME280;67585;44.802;10.332;2023-04-30T06:22:41;100954.28;;;15.42;76.05
78121;BME280;67585;44.802;10.332;2023-04-30T06:25:07;100947.69;;;15.48;75.09
78121;BME280;67585;44.802;10.332;2023-04-30T06:27:32;100963.03;;;15.68;74.55
78121;BME280;67585;44.802;10.332;2023-04-30T06:29:58;100968.22;;;15.25;76.27
78121;BME280;67585;44.802;10.332;2023-04-30T06:32:25;100962.97;;;15.39;75.62
78121;BME280;67585;44.802;10.332;2023-04-30T06:34:51;100973.44;;;15.56;75.50
78121;BME280;67585;44.802;10.332;2023-04-30T06:37:16;100966.22;;;15.80;74.45
78121;BME280;67585;44.802;10.332;2023-04-30T06:39:43;100970.66;;;15.66;75.14
78121;BME280;67585;44.802;10.332;2023-04-30T06:42:08;100934.41;;;15.12;76.50
78121;BME280;67585;44.802;10.332;2023-04-30T06:44:34;100954.09;;;15.63;75.20
78121;BME280;67585;44.802;10.332;2023-04-30T06:46:59;100949.19;;;15.65;75.16
78121;BME280;67585;44.802;10.332;2023-04-30T06:49:24;100941.56;;;15.67;75.22
78121;BME280;67585;44.802;10.332;2023-04-30T06:51:50;100966.72;;;16.12;74.03
78121;BME280;67585;44.802;10.332;2023-04-30T06:54:15;100952.31;;;16.11;73.48
78121;BME280;67585;44.802;10.332;2023-04-30T06:56:41;100933.13;;;16.27;72.82
78121;BME280;67585;44.802;10.332;2023-04-30T06:59:07;100941.50;;;16.54;72.05
78121;BME280;67585;44.802;10.332;2023-04-30T07:01:33;100974.19;;;16.73;72.37
78121;BME280;67585;44.802;10.332;2023-04-30T07:03:58;100955.56;;;16.61;72.27
78121;BME280;67585;44.802;10.332;2023-04-30T07:06:24;100954.50;;;16.57;72.68
78121;BME280;67585;44.802;10.332;2023-04-30T07:08:50;100980.22;;;16.70;72.08
78121;BME280;67585;44.802;10.332;2023-04-30T07:11:15;100963.94;;;16.65;71.41
78121;BME280;67585;44.802;10.332;2023-04-30T07:13:41;100962.25;;;16.21;73.02
78121;BME280;67585;44.802;10.332;2023-04-30T07:16:06;100982.47;;;16.63;71.69
78121;BME280;67585;44.802;10.332;2023-04-30T07:18:33;100975.66;;;16.65;71.59
78121;BME280;67585;44.802;10.332;2023-04-30T07:20:59;100970.88;;;16.76;71.02
78121;BME280;67585;44.802;10.332;2023-04-30T07:23:25;100958.34;;;16.80;71.00
78121;BME280;67585;44.802;10.332;2023-04-30T07:25:50;100967.25;;;17.05;69.84
78121;BME280;67585;44.802;10.332;2023-04-30T07:28:16;100974.16;;;16.78;70.57
78121;BME280;67585;44.802;10.332;2023-04-30T07:30:41;100976.97;;;17.11;70.01
78121;BME280;67585;44.802;10.332;2023-04-30T07:33:06;100942.03;;;16.99;69.71
78121;BME280;67585;44.802;10.332;2023-04-30T07:35:33;100959.88;;;17.43;68.69
78121;BME280;67585;44.802;10.332;2023-04-30T07:37:58;100973.34;;;17.54;68.48
78121;BME280;67585;44.802;10.332;2023-04-30T07:40:23;100942.69;;;17.29;67.77
78121;BME280;67585;44.802;10.332;2023-04-30T07:42:49;100974.81;;;17.98;66.82
78121;BME280;67585;44.802;10.332;2023-04-30T07:45:14;100963.75;;;18.35;65.36
78121;BME280;67585;44.802;10.332;2023-04-30T07:47:40;100959.91;;;18.50;64.23
78121;BME280;67585;44.802;10.332;2023-04-30T07:50:05;100966.16;;;18.23;65.30
78121;BME280;67585;44.802;10.332;2023-04-30T07:52:31;100966.56;;;18.44;64.82
78121;BME280;67585;44.802;10.332;2023-04-30T07:54:57;100974.03;;;18.25;65.24
78121;BME280;67585;44.802;10.332;2023-04-30T07:57:23;100968.59;;;18.25;64.24
78121;BME280;67585;44.802;10.332;2023-04-30T07:59:52;100978.38;;;18.40;64.47
78121;BME280;67585;44.802;10.332;2023-04-30T08:02:17;100974.25;;;18.42;63.88
78121;BME280;67585;44.802;10.332;2023-04-30T08:04:43;100968.16;;;18.18;65.21
78121;BME280;67585;44.802;10.332;2023-04-30T08:07:08;100950.91;;;18.08;65.06
78121;BME280;67585;44.802;10.332;2023-04-30T08:09:34;100968.91;;;18.23;65.46
78121;BME280;67585;44.802;10.332;2023-04-30T08:11:59;100952.72;;;18.13;65.21
78121;BME280;67585;44.802;10.332;2023-04-30T08:14:26;100963.53;;;18.32;64.72
78121;BME280;67585;44.802;10.332;2023-04-30T08:16:51;100968.91;;;18.51;64.12
78121;BME280;67585;44.802;10.332;2023-04-30T08:19:16;100969.41;;;18.81;63.01
78121;BME280;67585;44.802;10.332;2023-04-30T08:21:42;100954.44;;;18.92;62.35
78121;BME280;67585;44.802;10.332;2023-04-30T08:24:07;100938.34;;;18.90;61.33
78121;BME280;67585;44.802;10.332;2023-04-30T08:26:33;100934.38;;;19.10;60.43
78121;BME280;67585;44.802;10.332;2023-04-30T08:28:58;100963.78;;;19.36;60.33
78121;BME280;67585;44.802;10.332;2023-04-30T08:31:24;100933.66;;;19.27;59.83
78121;BME280;67585;44.802;10.332;2023-04-30T08:33:49;100951.94;;;19.40;60.56
78121;BME280;67585;44.802;10.332;2023-04-30T08:36:15;100958.00;;;19.74;59.31
78121;BME280;67585;44.802;10.332;2023-04-30T08:38:40;100961.56;;;19.83;59.25
78121;BME280;67585;44.802;10.332;2023-04-30T08:41:12;100980.81;;;20.00;58.23
78121;BME280;67585;44.802;10.332;2023-04-30T08:43:38;100966.16;;;19.96;58.81
78121;BME280;67585;44.802;10.332;2023-04-30T08:46:04;100961.53;;;19.74;59.18
78121;BME280;67585;44.802;10.332;2023-04-30T08:48:30;100952.63;;;19.91;58.55
78121;BME280;67585;44.802;10.332;2023-04-30T08:50:59;100970.72;;;20.10;58.75
78121;BME280;67585;44.802;10.332;2023-04-30T08:53:25;100968.81;;;19.88;58.45
78121;BME280;67585;44.802;10.332;2023-04-30T08:55:51;100951.88;;;19.77;59.09
78121;BME280;67585;44.802;10.332;2023-04-30T08:58:16;100949.16;;;19.77;59.27
78121;BME280;67585;44.802;10.332;2023-04-30T09:00:44;100932.28;;;19.61;59.42
78121;BME280;67585;44.802;10.332;2023-04-30T09:03:10;100942.69;;;19.28;60.36
78121;BME280;67585;44.802;10.332;2023-04-30T09:05:36;100960.97;;;19.27;61.28
78121;BME280;67585;44.802;10.332;2023-04-30T09:08:02;100981.72;;;19.28;60.74
78121;BME280;67585;44.802;10.332;2023-04-30T09:10:32;100983.16;;;19.26;61.84
78121;BME280;67585;44.802;10.332;2023-04-30T09:15:25;100983.28;;;19.20;61.71
78121;BME280;67585;44.802;10.332;2023-04-30T09:18:11;100941.44;;;19.11;61.59
78121;BME280;67585;44.802;10.332;2023-04-30T09:20:37;100968.03;;;19.42;60.53
78121;BME280;67585;44.802;10.332;2023-04-30T09:23:10;100980.16;;;19.50;60.78
78121;BME280;67585;44.802;10.332;2023-04-30T09:25:40;100967.03;;;19.60;60.08
78121;BME280;67585;44.802;10.332;2023-04-30T09:28:10;100965.44;;;19.82;59.43
78121;BME280;67585;44.802;10.332;2023-04-30T09:30:36;100973.06;;;20.25;58.42
78121;BME280;67585;44.802;10.332;2023-04-30T09:33:02;100956.28;;;20.18;58.40
78121;BME280;67585;44.802;10.332;2023-04-30T09:35:32;100977.22;;;20.62;57.91
78121;BME280;67585;44.802;10.332;2023-04-30T09:38:23;100971.09;;;20.65;56.42
78121;BME280;67585;44.802;10.332;2023-04-30T09:40:49;100945.50;;;20.61;56.36
78121;BME280;67585;44.802;10.332;2023-04-30T09:43:15;100981.03;;;20.53;56.84
78121;BME280;67585;44.802;10.332;2023-04-30T09:45:45;100984.78;;;20.25;58.46
78121;BME280;67585;44.802;10.332;2023-04-30T09:48:14;100953.47;;;20.40;55.98
78121;BME280;67585;44.802;10.332;2023-04-30T09:50:40;100973.72;;;20.79;54.42
78121;BME280;67585;44.802;10.332;2023-04-30T09:53:07;100968.78;;;20.50;55.46
78121;BME280;67585;44.802;10.332;2023-04-30T09:55:33;100985.84;;;20.47;53.77
78121;BME280;67585;44.802;10.332;2023-04-30T09:58:00;100982.50;;;20.19;54.11
78121;BME280;67585;44.802;10.332;2023-04-30T10:00:26;100982.28;;;20.38;54.31
78121;BME280;67585;44.802;10.332;2023-04-30T10:02:52;100980.19;;;20.35;54.27
78121;BME280;67585;44.802;10.332;2023-04-30T10:05:18;100981.41;;;20.28;54.88
78121;BME280;67585;44.802;10.332;2023-04-30T10:07:44;100981.53;;;20.15;55.32
78121;BME280;67585;44.802;10.332;2023-04-30T10:10:10;100961.56;;;19.83;55.92
78121;BME280;67585;44.802;10.332;2023-04-30T10:12:47;100985.94;;;19.93;55.12
78121;BME280;67585;44.802;10.332;2023-04-30T10:15:19;100949.41;;;19.67;55.23
78121;BME280;67585;44.802;10.332;2023-04-30T10:18:01;100939.34;;;19.76;55.21
78121;BME280;67585;44.802;10.332;2023-04-30T10:20:36;100939.03;;;19.77;55.50
78121;BME280;67585;44.802;10.332;2023-04-30T10:23:06;100958.44;;;19.98;55.70
78121;BME280;67585;44.802;10.332;2023-04-30T10:25:32;100972.78;;;20.04;55.96
78121;BME280;67585;44.802;10.332;2023-04-30T10:27:58;100950.75;;;20.00;55.55
78121;BME280;67585;44.802;10.332;2023-04-30T10:30:24;100952.75;;;20.26;55.11
78121;BME280;67585;44.802;10.332;2023-04-30T10:33:09;100929.78;;;20.36;54.35
78121;BME280;67585;44.802;10.332;2023-04-30T10:35:48;100965.25;;;20.10;55.60
78121;BME280;67585;44.802;10.332;2023-04-30T10:38:21;100956.22;;;20.00;55.78
78121;BME280;67585;44.802;10.332;2023-04-30T10:40:47;100958.38;;;19.90;57.50
78121;BME280;67585;44.802;10.332;2023-04-30T10:43:16;100942.34;;;19.97;56.39
78121;BME280;67585;44.802;10.332;2023-04-30T10:45:43;100942.41;;;20.14;55.04
78121;BME280;67585;44.802;10.332;2023-04-30T10:48:09;100928.16;;;19.86;55.63
78121;BME280;67585;44.802;10.332;2023-04-30T10:50:44;100927.22;;;19.91;55.97
78121;BME280;67585;44.802;10.332;2023-04-30T10:53:17;100939.53;;;20.19;55.52
78121;BME280;67585;44.802;10.332;2023-04-30T10:58:34;100939.38;;;19.84;56.50
78121;BME280;67585;44.802;10.332;2023-04-30T11:01:05;100943.75;;;20.25;55.31
78121;BME280;67585;44.802;10.332;2023-04-30T11:03:32;100929.97;;;19.99;55.93
78121;BME280;67585;44.802;10.332;2023-04-30T11:05:59;100869.69;;;19.42;56.53
78121;BME280;67585;44.802;10.332;2023-04-30T11:08:35;100945.66;;;19.85;56.23
78121;BME280;67585;44.802;10.332;2023-04-30T11:11:01;100925.16;;;19.51;57.28
78121;BME280;67585;44.802;10.332;2023-04-30T11:13:38;100922.19;;;19.61;56.89
78121;BME280;67585;44.802;10.332;2023-04-30T11:16:04;100929.19;;;19.54;57.21
78121;BME280;67585;44.802;10.332;2023-04-30T11:18:30;100930.97;;;19.50;58.29
78121;BME280;67585;44.802;10.332;2023-04-30T11:20:56;100926.59;;;19.49;58.24
78121;BME280;67585;44.802;10.332;2023-04-30T11:23:22;100913.13;;;19.52;58.17
78121;BME280;67585;44.802;10.332;2023-04-30T11:25:48;100928.22;;;19.72;57.35
78121;BME280;67585;44.802;10.332;2023-04-30T11:28:19;100930.16;;;19.72;57.71
78121;BME280;67585;44.802;10.332;2023-04-30T11:30:58;100916.16;;;19.73;58.07
78121;BME280;67585;44.802;10.332;2023-04-30T11:33:25;100921.31;;;19.75;57.97
78121;BME280;67585;44.802;10.332;2023-04-30T11:35:52;100912.47;;;19.69;58.25
78121;BME280;67585;44.802;10.332;2023-04-30T11:40:50;100900.44;;;19.56;58.56
78121;BME280;67585;44.802;10.332;2023-04-30T11:43:23;100893.94;;;19.66;58.55
78121;BME280;67585;44.802;10.332;2023-04-30T11:45:59;100922.41;;;19.96;57.67
78121;BME280;67585;44.802;10.332;2023-04-30T11:48:30;100909.75;;;20.09;57.89
78121;BME280;67585;44.802;10.332;2023-04-30T11:50:55;100903.31;;;20.05;57.31
78121;BME280;67585;44.802;10.332;2023-04-30T11:53:26;100898.00;;;20.09;57.10
78121;BME280;67585;44.802;10.332;2023-04-30T11:55:52;100910.94;;;20.25;56.46
78121;BME280;67585;44.802;10.332;2023-04-30T11:58:19;100905.56;;;20.12;57.19
78121;BME280;67585;44.802;10.332;2023-04-30T12:00:44;100905.06;;;20.10;57.47
78121;BME280;67585;44.802;10.332;2023-04-30T12:03:13;100884.41;;;19.86;57.65
78121;BME280;67585;44.802;10.332;2023-04-30T12:05:39;100913.41;;;20.04;57.49
78121;BME280;67585;44.802;10.332;2023-04-30T12:08:06;100892.88;;;19.76;58.24
78121;BME280;67585;44.802;10.332;2023-04-30T12:10:34;100902.13;;;19.97;57.52
78121;BME280;67585;44.802;10.332;2023-04-30T12:13:00;100896.75;;;20.15;57.33
78121;BME280;67585;44.802;10.332;2023-04-30T12:15:26;100892.47;;;20.40;56.63
78121;BME280;67585;44.802;10.332;2023-04-30T12:17:57;100897.38;;;20.78;56.22
78121;BME280;67585;44.802;10.332;2023-04-30T12:20:26;100875.53;;;20.29;56.14
78121;BME280;67585;44.802;10.332;2023-04-30T12:22:52;100890.38;;;20.45;55.85
78121;BME280;67585;44.802;10.332;2023-04-30T12:25:20;100887.31;;;20.47;55.87
78121;BME280;67585;44.802;10.332;2023-04-30T12:27:48;100877.16;;;20.39;55.68
78121;BME280;67585;44.802;10.332;2023-04-30T12:30:17;100887.44;;;20.24;56.29
78121;BME280;67585;44.802;10.332;2023-04-30T12:32:44;100874.53;;;20.16;56.55
78121;BME280;67585;44.802;10.332;2023-04-30T12:35:21;100893.03;;;20.11;57.79
78121;BME280;67585;44.802;10.332;2023-04-30T12:37:52;100866.09;;;19.95;57.58
78121;BME280;67585;44.802;10.332;2023-04-30T12:40:19;100878.78;;;19.91;57.28
78121;BME280;67585;44.802;10.332;2023-04-30T12:42:44;100890.63;;;19.78;58.41
78121;BME280;67585;44.802;10.332;2023-04-30T12:45:12;100878.72;;;19.74;58.94
78121;BME280;67585;44.802;10.332;2023-04-30T12:47:41;100885.69;;;19.89;58.70
78121;BME280;67585;44.802;10.332;2023-04-30T12:50:10;100887.69;;;20.05;57.78
78121;BME280;67585;44.802;10.332;2023-04-30T12:52:39;100878.72;;;20.14;57.52
78121;BME280;67585;44.802;10.332;2023-04-30T12:55:25;100874.69;;;20.11;58.08
78121;BME280;67585;44.802;10.332;2023-04-30T12:58:06;100861.94;;;20.06;57.46
78121;BME280;67585;44.802;10.332;2023-04-30T13:03:08;100847.78;;;20.04;57.66
78121;BME280;67585;44.802;10.332;2023-04-30T13:05:33;100851.13;;;19.93;57.76
78121;BME280;67585;44.802;10.332;2023-04-30T13:08:02;100847.97;;;20.17;57.54
78121;BME280;67585;44.802;10.332;2023-04-30T13:10:30;100854.41;;;20.12;57.87
78121;BME280;67585;44.802;10.332;2023-04-30T13:12:56;100836.09;;;20.39;56.88